Flight Track Log - Related Links

Times and Time Zones

All times are in EDT time to prevent confusion due to time zone crossing. See the AUB1994 flight status page for this flight to view local times or setup timezone preferences in your user account.

Time Position Orientation Groundspeed Altitude Reporting Facility
EDT Latitude Longitude Course Direction KTS MPH feet Rate Location/Type
Wed 01:17:00 PM 48.6198 11.3316 312° West  Level Estimated
Wed 01:18:00 PM 48.6860 11.2172 311° West  Level Estimated
Wed 01:19:00 PM 48.7521 11.1025 311° West  Level Estimated
Wed 01:20:00 PM 48.8180 10.9875 311° West  Level Estimated
Wed 01:21:00 PM 48.8839 10.8723 311° West  Level Estimated
Wed 01:22:00 PM 48.9497 10.7567 311° West  Level Estimated
Wed 01:23:00 PM 49.0153 10.6408 311° West  Level Estimated
Wed 01:24:00 PM 49.0808 10.5246 311° West  Level Estimated
Wed 01:25:00 PM 49.1462 10.4081 311° West  Level Estimated
Wed 01:26:00 PM 49.2115 10.2913 311° West  Level Estimated
Wed 01:27:00 PM 49.2767 10.1742 310° West  Level Estimated
Wed 01:28:00 PM 49.3417 10.0568 310° West  Level Estimated
Wed 01:29:00 PM 49.4067 9.9390 310° West  Level Estimated
Wed 01:30:00 PM 49.4715 9.8210 310° West  Level Estimated
Wed 01:31:00 PM 49.5362 9.7026 310° West  Level Estimated
Wed 01:32:00 PM 49.6007 9.5839 310° West  Level Estimated
Wed 01:33:00 PM 49.6652 9.4649 310° West  Level Estimated
Wed 01:34:00 PM 49.7295 9.3456 310° West  Level Estimated
Wed 01:35:00 PM 49.7937 9.2260 310° West  Level Estimated
Wed 01:36:00 PM 49.8578 9.1061 310° West  Level Estimated
Wed 01:37:00 PM 49.9217 8.9858 310° West  Level Estimated
Wed 01:38:00 PM 49.9856 8.8652 309° West  Level Estimated
Wed 01:39:00 PM 50.0493 8.7443 309° West  Level Estimated
Wed 01:40:00 PM 50.1128 8.6231 309° West  Level Estimated
Wed 01:41:00 PM 50.1763 8.5016 309° West  Level Estimated
Wed 01:42:00 PM 50.2396 8.3797 309° West  Level Estimated
Wed 01:43:00 PM 50.3028 8.2575 309° West  Level Estimated
Wed 01:44:00 PM 50.3659 8.1350 309° West  Level Estimated
Wed 01:45:00 PM 50.4288 8.0122 309° West  Level Estimated
Wed 01:46:00 PM 50.4916 7.8890 309° West  Level Estimated
Wed 01:47:00 PM 50.5543 7.7655 309° West  Level Estimated
Wed 01:48:00 PM 50.6169 7.6417 309° West  Level Estimated
Wed 01:49:00 PM 50.6793 7.5175 308° West  Level Estimated
Wed 01:50:00 PM 50.7416 7.3931 308° West  Level Estimated
Wed 01:51:00 PM 50.8037 7.2683 308° West  Level Estimated
Wed 01:52:00 PM 50.8657 7.1431 308° West  Level Estimated
Wed 01:53:00 PM 50.8659 7.1427 308° West  Level Estimated
Wed 01:54:00 PM 50.8659 7.1427 140° Southeast  Level Estimated
Wed 01:55:00 PM 50.8659 7.1427 140° Southeast  Level Estimated
Wed 01:56:00 PM 50.8659 7.1427 140° Southeast  Level Estimated
Wed 01:57:00 PM 50.8659 7.1427 140° Southeast  Level Estimated
Wed 01:58:00 PM 50.8659 7.1427 140° Southeast  Level Estimated
Wed 01:59:00 PM 50.8659 7.1427 140° Southeast  Level Estimated
Wed 02:00:00 PM 50.8659 7.1427 140° Southeast  Level Estimated
Wed 02:01:00 PM 50.8659 7.1427 140° Southeast  Level Estimated
Wed 02:02:00 PM 50.8659 7.1427 140° Southeast  Level Estimated
Wed 02:03:00 PM 50.8659 7.1427 140° Southeast  Level Estimated
Wed 02:04:00 PM 50.8659 7.1427 140° Southeast  Level Estimated
Wed 02:05:00 PM 50.8659 7.1427 140° Southeast  Level Estimated
Wed 02:06:00 PM 50.8659 7.1427 140° Southeast  Level Estimated
Wed 02:07:00 PM 50.8659 7.1427 140° Southeast  Level Estimated
Wed 02:08:00 PM 50.8659 7.1427 140° Southeast  Level Estimated

Login

Don't have an account? Register now (free) for customized features, flight alerts, and more!